sensor_id;sensor_type;location;lat;lon;timestamp;temperature;humidity
52656;SHT85;35474;51.032;6.998;2022-08-01T00:00:01;20.89;83.48
52656;SHT85;35474;51.032;6.998;2022-08-01T00:02:30;20.84;84.25
52656;SHT85;35474;51.032;6.998;2022-08-01T00:04:57;20.72;85.56
52656;SHT85;35474;51.032;6.998;2022-08-01T00:07:24;20.53;86.55
52656;SHT85;35474;51.032;6.998;2022-08-01T00:09:50;20.42;86.59
52656;SHT85;35474;51.032;6.998;2022-08-01T00:12:17;20.34;87.31
52656;SHT85;35474;51.032;6.998;2022-08-01T00:14:44;20.14;87.18
52656;SHT85;35474;51.032;6.998;2022-08-01T00:17:10;20.17;87.41
52656;SHT85;35474;51.032;6.998;2022-08-01T00:19:37;20.18;86.99
52656;SHT85;35474;51.032;6.998;2022-08-01T00:22:03;20.11;87.35
52656;SHT85;35474;51.032;6.998;2022-08-01T00:24:30;20.18;87.47
52656;SHT85;35474;51.032;6.998;2022-08-01T00:26:56;20.26;87.02
52656;SHT85;35474;51.032;6.998;2022-08-01T00:29:23;20.28;87.16
52656;SHT85;35474;51.032;6.998;2022-08-01T00:32:09;20.25;86.55
52656;SHT85;35474;51.032;6.998;2022-08-01T00:34:36;20.22;86.50
52656;SHT85;35474;51.032;6.998;2022-08-01T00:37:02;20.32;86.90
52656;SHT85;35474;51.032;6.998;2022-08-01T00:39:29;20.42;86.25
52656;SHT85;35474;51.032;6.998;2022-08-01T00:41:55;20.32;85.69
52656;SHT85;35474;51.032;6.998;2022-08-01T00:44:25;20.29;84.63
52656;SHT85;35474;51.032;6.998;2022-08-01T00:46:52;20.34;84.49
52656;SHT85;35474;51.032;6.998;2022-08-01T00:49:19;20.34;84.51
52656;SHT85;35474;51.032;6.998;2022-08-01T00:51:45;20.42;84.36
52656;SHT85;35474;51.032;6.998;2022-08-01T00:54:12;20.38;84.26
52656;SHT85;35474;51.032;6.998;2022-08-01T00:56:42;20.44;84.00
52656;SHT85;35474;51.032;6.998;2022-08-01T00:59:09;20.44;84.31
52656;SHT85;35474;51.032;6.998;2022-08-01T01:01:39;20.46;83.36
52656;SHT85;35474;51.032;6.998;2022-08-01T01:04:12;20.49;83.08
52656;SHT85;35474;51.032;6.998;2022-08-01T01:10:15;20.48;82.92
52656;SHT85;35474;51.032;6.998;2022-08-01T01:12:50;20.55;82.70
52656;SHT85;35474;51.032;6.998;2022-08-01T01:15:23;20.56;82.71
52656;SHT85;35474;51.032;6.998;2022-08-01T01:26:45;20.49;82.26
52656;SHT85;35474;51.032;6.998;2022-08-01T01:29:41;20.48;82.35
52656;SHT85;35474;51.032;6.998;2022-08-01T01:32:33;20.48;82.55
52656;SHT85;35474;51.032;6.998;2022-08-01T01:35:21;20.46;82.47
52656;SHT85;35474;51.032;6.998;2022-08-01T01:37:52;20.51;82.53
52656;SHT85;35474;51.032;6.998;2022-08-01T01:40:40;20.41;82.46
52656;SHT85;35474;51.032;6.998;2022-08-01T01:43:09;20.52;82.53
52656;SHT85;35474;51.032;6.998;2022-08-01T01:45:37;20.48;82.20
52656;SHT85;35474;51.032;6.998;2022-08-01T01:48:09;20.44;82.40
52656;SHT85;35474;51.032;6.998;2022-08-01T01:50:38;20.42;82.27
52656;SHT85;35474;51.032;6.998;2022-08-01T01:53:07;20.49;82.19
52656;SHT85;35474;51.032;6.998;2022-08-01T01:55:40;20.48;82.07
52656;SHT85;35474;51.032;6.998;2022-08-01T01:58:15;20.41;82.33
52656;SHT85;35474;51.032;6.998;2022-08-01T02:00:44;20.42;82.16
52656;SHT85;35474;51.032;6.998;2022-08-01T02:03:12;20.42;82.26
52656;SHT85;35474;51.032;6.998;2022-08-01T02:05:41;20.42;82.46
52656;SHT85;35474;51.032;6.998;2022-08-01T02:08:09;20.44;82.11
52656;SHT85;35474;51.032;6.998;2022-08-01T02:10:37;20.46;82.15
52656;SHT85;35474;51.032;6.998;2022-08-01T02:13:05;20.44;82.23
52656;SHT85;35474;51.032;6.998;2022-08-01T02:15:33;20.42;82.29
52656;SHT85;35474;51.032;6.998;2022-08-01T02:18:24;20.45;81.88
52656;SHT85;35474;51.032;6.998;2022-08-01T02:20:52;20.48;81.73
52656;SHT85;35474;51.032;6.998;2022-08-01T02:23:21;20.45;81.91
52656;SHT85;35474;51.032;6.998;2022-08-01T02:25:50;20.46;81.78
52656;SHT85;35474;51.032;6.998;2022-08-01T02:28:47;20.45;81.92
52656;SHT85;35474;51.032;6.998;2022-08-01T02:31:23;20.46;81.75
52656;SHT85;35474;51.032;6.998;2022-08-01T02:33:54;20.42;81.98
52656;SHT85;35474;51.032;6.998;2022-08-01T02:36:25;20.45;81.72
52656;SHT85;35474;51.032;6.998;2022-08-01T02:38:58;20.42;81.82
52656;SHT85;35474;51.032;6.998;2022-08-01T02:41:27;20.42;82.04
52656;SHT85;35474;51.032;6.998;2022-08-01T02:43:59;20.46;81.88
52656;SHT85;35474;51.032;6.998;2022-08-01T02:46:31;20.48;81.89
52656;SHT85;35474;51.032;6.998;2022-08-01T02:49:02;20.39;82.27
52656;SHT85;35474;51.032;6.998;2022-08-01T02:51:32;20.38;82.18
52656;SHT85;35474;51.032;6.998;2022-08-01T02:54:00;20.31;82.51
52656;SHT85;35474;51.032;6.998;2022-08-01T02:56:29;20.31;82.55
52656;SHT85;35474;51.032;6.998;2022-08-01T02:59:05;20.31;82.74
52656;SHT85;35474;51.032;6.998;2022-08-01T03:01:35;20.29;82.60
52656;SHT85;35474;51.032;6.998;2022-08-01T03:04:05;20.38;82.55
52656;SHT85;35474;51.032;6.998;2022-08-01T03:06:32;20.39;82.40
52656;SHT85;35474;51.032;6.998;2022-08-01T03:09:01;20.35;82.57
52656;SHT85;35474;51.032;6.998;2022-08-01T03:11:30;20.36;82.83
52656;SHT85;35474;51.032;6.998;2022-08-01T03:13:59;20.36;82.53
52656;SHT85;35474;51.032;6.998;2022-08-01T03:16:29;20.32;82.85
52656;SHT85;35474;51.032;6.998;2022-08-01T03:18:57;20.29;82.54
52656;SHT85;35474;51.032;6.998;2022-08-01T03:21:27;20.29;82.68
52656;SHT85;35474;51.032;6.998;2022-08-01T03:23:56;20.25;82.85
52656;SHT85;35474;51.032;6.998;2022-08-01T03:26:27;20.28;82.99
52656;SHT85;35474;51.032;6.998;2022-08-01T03:28:55;20.31;82.65
52656;SHT85;35474;51.032;6.998;2022-08-01T03:31:25;20.34;82.54
52656;SHT85;35474;51.032;6.998;2022-08-01T03:33:52;20.31;82.69
52656;SHT85;35474;51.032;6.998;2022-08-01T03:36:21;20.36;82.59
52656;SHT85;35474;51.032;6.998;2022-08-01T03:38:52;20.35;82.55
52656;SHT85;35474;51.032;6.998;2022-08-01T03:41:24;20.29;82.79
52656;SHT85;35474;51.032;6.998;2022-08-01T03:43:56;20.25;82.77
52656;SHT85;35474;51.032;6.998;2022-08-01T03:46:28;20.26;82.80
52656;SHT85;35474;51.032;6.998;2022-08-01T03:49:00;20.28;82.75
52656;SHT85;35474;51.032;6.998;2022-08-01T03:51:30;20.26;82.76
52656;SHT85;35474;51.032;6.998;2022-08-01T03:53:59;20.34;82.68
52656;SHT85;35474;51.032;6.998;2022-08-01T03:56:28;20.28;82.82
52656;SHT85;35474;51.032;6.998;2022-08-01T03:58:59;20.28;82.99
52656;SHT85;35474;51.032;6.998;2022-08-01T04:01:26;20.32;82.99
52656;SHT85;35474;51.032;6.998;2022-08-01T04:03:55;20.32;82.59
52656;SHT85;35474;51.032;6.998;2022-08-01T04:06:22;20.24;82.93
52656;SHT85;35474;51.032;6.998;2022-08-01T04:08:48;20.25;83.00
52656;SHT85;35474;51.032;6.998;2022-08-01T04:11:23;20.22;82.98
52656;SHT85;35474;51.032;6.998;2022-08-01T04:13:51;20.29;82.99
52656;SHT85;35474;51.032;6.998;2022-08-01T04:18:20;20.28;82.99
52656;SHT85;35474;51.032;6.998;2022-08-01T04:20:47;20.28;83.03
52656;SHT85;35474;51.032;6.998;2022-08-01T04:23:17;20.31;83.02
52656;SHT85;35474;51.032;6.998;2022-08-01T04:28:27;20.24;83.40
52656;SHT85;35474;51.032;6.998;2022-08-01T04:30:57;20.31;83.36
52656;SHT85;35474;51.032;6.998;2022-08-01T04:33:28;20.32;83.35
52656;SHT85;35474;51.032;6.998;2022-08-01T04:35:57;20.34;83.34
52656;SHT85;35474;51.032;6.998;2022-08-01T04:38:29;20.42;83.08
52656;SHT85;35474;51.032;6.998;2022-08-01T04:40:58;20.36;83.23
52656;SHT85;35474;51.032;6.998;2022-08-01T04:43:35;20.32;83.33
52656;SHT85;35474;51.032;6.998;2022-08-01T04:46:02;20.32;83.44
52656;SHT85;35474;51.032;6.998;2022-08-01T04:48:31;20.29;83.62
52656;SHT85;35474;51.032;6.998;2022-08-01T04:51:00;20.31;83.47
52656;SHT85;35474;51.032;6.998;2022-08-01T04:53:26;20.29;83.62
52656;SHT85;35474;51.032;6.998;2022-08-01T04:55:53;20.26;83.78
52656;SHT85;35474;51.032;6.998;2022-08-01T04:58:20;20.32;83.59
52656;SHT85;35474;51.032;6.998;2022-08-01T05:00:47;20.26;83.83
52656;SHT85;35474;51.032;6.998;2022-08-01T05:03:13;20.22;83.96
52656;SHT85;35474;51.032;6.998;2022-08-01T05:05:40;20.29;83.91
52656;SHT85;35474;51.032;6.998;2022-08-01T05:08:07;20.15;84.13
52656;SHT85;35474;51.032;6.998;2022-08-01T05:10:33;20.22;84.19
52656;SHT85;35474;51.032;6.998;2022-08-01T05:13:00;20.26;83.98
52656;SHT85;35474;51.032;6.998;2022-08-01T05:15:27;20.29;83.77
52656;SHT85;35474;51.032;6.998;2022-08-01T05:17:54;20.41;83.61
52656;SHT85;35474;51.032;6.998;2022-08-01T05:20:20;20.42;83.39
52656;SHT85;35474;51.032;6.998;2022-08-01T05:22:47;20.42;83.55
52656;SHT85;35474;51.032;6.998;2022-08-01T05:25:14;20.35;83.71
52656;SHT85;35474;51.032;6.998;2022-08-01T05:27:50;20.28;83.79
52656;SHT85;35474;51.032;6.998;2022-08-01T05:30:19;20.20;84.02
52656;SHT85;35474;51.032;6.998;2022-08-01T05:32:45;20.22;84.22
52656;SHT85;35474;51.032;6.998;2022-08-01T05:35:12;20.25;84.02
52656;SHT85;35474;51.032;6.998;2022-08-01T05:37:38;20.36;83.93
52656;SHT85;35474;51.032;6.998;2022-08-01T05:40:05;20.39;83.54
52656;SHT85;35474;51.032;6.998;2022-08-01T05:42:32;20.39;83.51
52656;SHT85;35474;51.032;6.998;2022-08-01T05:44:58;20.34;83.80
52656;SHT85;35474;51.032;6.998;2022-08-01T05:47:25;20.32;83.62
52656;SHT85;35474;51.032;6.998;2022-08-01T05:49:51;20.36;83.65
52656;SHT85;35474;51.032;6.998;2022-08-01T05:52:18;20.35;83.87
52656;SHT85;35474;51.032;6.998;2022-08-01T05:54:44;20.65;82.95
52656;SHT85;35474;51.032;6.998;2022-08-01T05:57:11;20.72;82.41
52656;SHT85;35474;51.032;6.998;2022-08-01T05:59:39;20.66;82.63
52656;SHT85;35474;51.032;6.998;2022-08-01T06:02:06;20.59;82.86
52656;SHT85;35474;51.032;6.998;2022-08-01T06:04:33;20.49;83.29
52656;SHT85;35474;51.032;6.998;2022-08-01T06:07:00;20.75;82.56
52656;SHT85;35474;51.032;6.998;2022-08-01T06:09:26;20.72;82.34
52656;SHT85;35474;51.032;6.998;2022-08-01T06:11:53;20.79;82.31
52656;SHT85;35474;51.032;6.998;2022-08-01T06:14:19;20.97;81.48
52656;SHT85;35474;51.032;6.998;2022-08-01T06:16:46;21.09;80.72
52656;SHT85;35474;51.032;6.998;2022-08-01T06:19:12;20.79;81.55
52656;SHT85;35474;51.032;6.998;2022-08-01T06:21:39;20.69;81.90
52656;SHT85;35474;51.032;6.998;2022-08-01T06:24:06;20.89;81.82
52656;SHT85;35474;51.032;6.998;2022-08-01T06:26:32;20.84;81.76
52656;SHT85;35474;51.032;6.998;2022-08-01T06:28:59;20.66;82.12
52656;SHT85;35474;51.032;6.998;2022-08-01T06:31:25;20.65;82.49
52656;SHT85;35474;51.032;6.998;2022-08-01T06:33:58;20.97;81.26
52656;SHT85;35474;51.032;6.998;2022-08-01T06:36:25;21.31;80.40
52656;SHT85;35474;51.032;6.998;2022-08-01T06:38:51;21.16;80.33
52656;SHT85;35474;51.032;6.998;2022-08-01T06:41:18;21.17;80.49
52656;SHT85;35474;51.032;6.998;2022-08-01T06:43:44;20.99;81.10
52656;SHT85;35474;51.032;6.998;2022-08-01T06:46:11;21.16;79.17
52656;SHT85;35474;51.032;6.998;2022-08-01T06:48:37;21.72;77.88
52656;SHT85;35474;51.032;6.998;2022-08-01T06:51:05;22.06;76.42
52656;SHT85;35474;51.032;6.998;2022-08-01T06:53:35;21.72;75.93
52656;SHT85;35474;51.032;6.998;2022-08-01T06:56:03;21.64;76.48
52656;SHT85;35474;51.032;6.998;2022-08-01T06:58:30;22.15;74.84
52656;SHT85;35474;51.032;6.998;2022-08-01T07:00:57;22.25;74.29
52656;SHT85;35474;51.032;6.998;2022-08-01T07:03:24;22.46;73.60
52656;SHT85;35474;51.032;6.998;2022-08-01T07:05:52;22.25;74.61
52656;SHT85;35474;51.032;6.998;2022-08-01T07:08:19;21.95;75.58
52656;SHT85;35474;51.032;6.998;2022-08-01T07:10:47;21.81;76.02
52656;SHT85;35474;51.032;6.998;2022-08-01T07:13:13;22.10;75.04
52656;SHT85;35474;51.032;6.998;2022-08-01T07:15:43;22.06;74.88
52656;SHT85;35474;51.032;6.998;2022-08-01T07:18:10;21.55;75.45
52656;SHT85;35474;51.032;6.998;2022-08-01T07:20:37;21.77;75.58
52656;SHT85;35474;51.032;6.998;2022-08-01T07:23:18;21.93;74.88
52656;SHT85;35474;51.032;6.998;2022-08-01T07:25:47;21.88;74.82
52656;SHT85;35474;51.032;6.998;2022-08-01T07:28:18;22.13;74.43
52656;SHT85;35474;51.032;6.998;2022-08-01T07:30:44;22.44;73.41
52656;SHT85;35474;51.032;6.998;2022-08-01T07:33:11;22.68;72.60
52656;SHT85;35474;51.032;6.998;2022-08-01T07:35:38;22.63;72.38
52656;SHT85;35474;51.032;6.998;2022-08-01T07:38:08;22.15;73.83
52656;SHT85;35474;51.032;6.998;2022-08-01T07:40:38;21.86;75.08
52656;SHT85;35474;51.032;6.998;2022-08-01T07:43:04;22.39;73.71
52656;SHT85;35474;51.032;6.998;2022-08-01T07:45:31;22.67;71.25
52656;SHT85;35474;51.032;6.998;2022-08-01T07:48:01;22.46;71.62
52656;SHT85;35474;51.032;6.998;2022-08-01T07:50:34;22.67;71.66
52656;SHT85;35474;51.032;6.998;2022-08-01T07:53:00;23.14;70.22
52656;SHT85;35474;51.032;6.998;2022-08-01T07:55:28;23.52;69.07
52656;SHT85;35474;51.032;6.998;2022-08-01T07:57:55;23.50;68.91
52656;SHT85;35474;51.032;6.998;2022-08-01T08:00:22;23.41;69.05
52656;SHT85;35474;51.032;6.998;2022-08-01T08:02:49;23.31;69.67
52656;SHT85;35474;51.032;6.998;2022-08-01T08:05:15;22.90;70.73
52656;SHT85;35474;51.032;6.998;2022-08-01T08:08:05;22.83;71.02
52656;SHT85;35474;51.032;6.998;2022-08-01T08:10:33;22.66;71.55
52656;SHT85;35474;51.032;6.998;2022-08-01T08:13:00;23.10;70.82
52656;SHT85;35474;51.032;6.998;2022-08-01T08:15:28;24.75;65.43
52656;SHT85;35474;51.032;6.998;2022-08-01T08:17:54;25.54;62.80
52656;SHT85;35474;51.032;6.998;2022-08-01T08:20:21;27.07;58.13
52656;SHT85;35474;51.032;6.998;2022-08-01T08:22:51;26.05;59.99
52656;SHT85;35474;51.032;6.998;2022-08-01T08:25:17;25.85;60.28
52656;SHT85;35474;51.032;6.998;2022-08-01T08:27:52;25.73;60.14
52656;SHT85;35474;51.032;6.998;2022-08-01T08:30:19;24.27;63.20
52656;SHT85;35474;51.032;6.998;2022-08-01T08:32:47;23.46;66.32
52656;SHT85;35474;51.032;6.998;2022-08-01T08:35:13;23.32;66.88
52656;SHT85;35474;51.032;6.998;2022-08-01T08:37:48;23.42;66.56
52656;SHT85;35474;51.032;6.998;2022-08-01T08:40:15;24.07;65.21
52656;SHT85;35474;51.032;6.998;2022-08-01T08:42:42;23.32;66.55
52656;SHT85;35474;51.032;6.998;2022-08-01T08:45:09;23.14;67.31
52656;SHT85;35474;51.032;6.998;2022-08-01T08:47:37;23.58;66.93
52656;SHT85;35474;51.032;6.998;2022-08-01T08:50:05;24.11;64.96
52656;SHT85;35474;51.032;6.998;2022-08-01T08:52:33;24.23;63.91
52656;SHT85;35474;51.032;6.998;2022-08-01T08:55:04;24.07;64.51
52656;SHT85;35474;51.032;6.998;2022-08-01T08:57:31;23.67;64.85
52656;SHT85;35474;51.032;6.998;2022-08-01T08:59:58;23.32;66.37
52656;SHT85;35474;51.032;6.998;2022-08-01T09:02:25;23.58;65.73
52656;SHT85;35474;51.032;6.998;2022-08-01T09:04:51;23.86;64.87
52656;SHT85;35474;51.032;6.998;2022-08-01T09:07:18;23.72;64.52
52656;SHT85;35474;51.032;6.998;2022-08-01T09:09:45;24.42;63.23
52656;SHT85;35474;51.032;6.998;2022-08-01T09:12:18;24.32;63.07
52656;SHT85;35474;51.032;6.998;2022-08-01T09:14:46;24.51;63.16
52656;SHT85;35474;51.032;6.998;2022-08-01T09:17:15;23.94;64.09
52656;SHT85;35474;51.032;6.998;2022-08-01T09:19:46;23.62;66.34
52656;SHT85;35474;51.032;6.998;2022-08-01T09:22:16;24.20;64.60
52656;SHT85;35474;51.032;6.998;2022-08-01T09:25:22;24.62;62.86
52656;SHT85;35474;51.032;6.998;2022-08-01T09:27:41;24.40;63.33
52656;SHT85;35474;51.032;6.998;2022-08-01T09:30:15;23.89;64.75
52656;SHT85;35474;51.032;6.998;2022-08-01T09:32:56;23.45;66.40
52656;SHT85;35474;51.032;6.998;2022-08-01T09:35:43;23.32;65.76
52656;SHT85;35474;51.032;6.998;2022-08-01T09:41:05;23.42;65.34
52656;SHT85;35474;51.032;6.998;2022-08-01T09:43:31;25.27;60.27
52656;SHT85;35474;51.032;6.998;2022-08-01T09:45:58;24.93;61.19
52656;SHT85;35474;51.032;6.998;2022-08-01T09:48:55;25.22;60.22
52656;SHT85;35474;51.032;6.998;2022-08-01T09:51:36;24.57;61.61
52656;SHT85;35474;51.032;6.998;2022-08-01T09:54:28;23.77;63.80
52656;SHT85;35474;51.032;6.998;2022-08-01T09:57:06;24.40;62.48
52656;SHT85;35474;51.032;6.998;2022-08-01T09:59:38;24.75;61.31
52656;SHT85;35474;51.032;6.998;2022-08-01T10:05:02;27.05;55.53
52656;SHT85;35474;51.032;6.998;2022-08-01T10:07:34;25.50;59.17
52656;SHT85;35474;51.032;6.998;2022-08-01T10:10:13;24.32;61.82
52656;SHT85;35474;51.032;6.998;2022-08-01T10:12:41;23.96;63.35
52656;SHT85;35474;51.032;6.998;2022-08-01T10:15:10;23.46;64.82
52656;SHT85;35474;51.032;6.998;2022-08-01T10:17:40;23.49;64.16
52656;SHT85;35474;51.032;6.998;2022-08-01T10:20:17;23.94;63.15
52656;SHT85;35474;51.032;6.998;2022-08-01T10:23:03;23.90;63.74
52656;SHT85;35474;51.032;6.998;2022-08-01T10:25:35;24.81;61.67
52656;SHT85;35474;51.032;6.998;2022-08-01T10:28:15;25.68;58.96
52656;SHT85;35474;51.032;6.998;2022-08-01T10:30:49;26.19;57.75
52656;SHT85;35474;51.032;6.998;2022-08-01T10:33:17;26.91;54.89
52656;SHT85;35474;51.032;6.998;2022-08-01T10:36:04;29.37;48.71
52656;SHT85;35474;51.032;6.998;2022-08-01T10:38:34;28.51;50.40
52656;SHT85;35474;51.032;6.998;2022-08-01T10:41:02;28.37;51.45
52656;SHT85;35474;51.032;6.998;2022-08-01T10:43:33;26.55;54.21
52656;SHT85;35474;51.032;6.998;2022-08-01T10:46:00;25.95;54.87
52656;SHT85;35474;51.032;6.998;2022-08-01T10:51:17;27.94;52.50
52656;SHT85;35474;51.032;6.998;2022-08-01T10:53:47;30.31;46.22
52656;SHT85;35474;51.032;6.998;2022-08-01T10:56:20;29.56;47.38
52656;SHT85;35474;51.032;6.998;2022-08-01T10:58:55;26.60;53.25
52656;SHT85;35474;51.032;6.998;2022-08-01T11:01:37;25.77;55.58
52656;SHT85;35474;51.032;6.998;2022-08-01T11:04:13;25.47;56.59
52656;SHT85;35474;51.032;6.998;2022-08-01T11:06:49;26.52;53.42
52656;SHT85;35474;51.032;6.998;2022-08-01T11:09:22;25.91;55.68
52656;SHT85;35474;51.032;6.998;2022-08-01T11:20:15;25.81;54.39
52656;SHT85;35474;51.032;6.998;2022-08-01T11:28:24;25.41;57.29
52656;SHT85;35474;51.032;6.998;2022-08-01T11:38:41;27.27;51.67
52656;SHT85;35474;51.032;6.998;2022-08-01T11:52:13;30.46;43.09
52656;SHT85;35474;51.032;6.998;2022-08-01T11:59:48;31.41;41.41
52656;SHT85;35474;51.032;6.998;2022-08-01T12:02:30;28.10;48.16
52656;SHT85;35474;51.032;6.998;2022-08-01T12:07:37;26.67;52.17
52656;SHT85;35474;51.032;6.998;2022-08-01T12:10:06;26.86;50.76
52656;SHT85;35474;51.032;6.998;2022-08-01T12:12:36;26.69;50.59
52656;SHT85;35474;51.032;6.998;2022-08-01T12:15:08;27.32;49.30
52656;SHT85;35474;51.032;6.998;2022-08-01T12:17:36;27.94;48.15
52656;SHT85;35474;51.032;6.998;2022-08-01T12:20:13;29.47;44.90
52656;SHT85;35474;51.032;6.998;2022-08-01T12:22:41;28.00;45.35
52656;SHT85;35474;51.032;6.998;2022-08-01T12:27:36;28.58;45.69
52656;SHT85;35474;51.032;6.998;2022-08-01T12:30:09;29.03;44.41
52656;SHT85;35474;51.032;6.998;2022-08-01T12:32:41;28.16;45.34
52656;SHT85;35474;51.032;6.998;2022-08-01T12:37:44;28.10;45.56
52656;SHT85;35474;51.032;6.998;2022-08-01T12:40:13;29.25;44.24
52656;SHT85;35474;51.032;6.998;2022-08-01T12:42:40;29.76;42.96
52656;SHT85;35474;51.032;6.998;2022-08-01T12:45:08;29.23;44.48
52656;SHT85;35474;51.032;6.998;2022-08-01T12:47:37;30.20;43.05
52656;SHT85;35474;51.032;6.998;2022-08-01T12:50:08;29.46;44.19
52656;SHT85;35474;51.032;6.998;2022-08-01T12:52:38;28.36;46.26
52656;SHT85;35474;51.032;6.998;2022-08-01T12:57:38;27.21;47.47
52656;SHT85;35474;51.032;6.998;2022-08-01T13:00:16;26.46;48.39
52656;SHT85;35474;51.032;6.998;2022-08-01T13:03:03;26.66;47.86
52656;SHT85;35474;51.032;6.998;2022-08-01T13:08:18;26.73;46.20
52656;SHT85;35474;51.032;6.998;2022-08-01T13:10:50;26.40;46.96
52656;SHT85;35474;51.032;6.998;2022-08-01T13:13:38;26.69;46.81
52656;SHT85;35474;51.032;6.998;2022-08-01T13:16:09;26.65;46.40
52656;SHT85;35474;51.032;6.998;2022-08-01T13:18:57;27.18;45.39
52656;SHT85;35474;51.032;6.998;2022-08-01T13:21:25;27.68;45.26
52656;SHT85;35474;51.032;6.998;2022-08-01T13:29:17;26.76;45.50
52656;SHT85;35474;51.032;6.998;2022-08-01T13:31:45;26.70;45.16
52656;SHT85;35474;51.032;6.998;2022-08-01T13:34:14;27.25;44.79
52656;SHT85;35474;51.032;6.998;2022-08-01T13:36:40;26.90;46.29
52656;SHT85;35474;51.032;6.998;2022-08-01T13:39:14;27.23;46.62
52656;SHT85;35474;51.032;6.998;2022-08-01T13:41:59;28.04;44.93
52656;SHT85;35474;51.032;6.998;2022-08-01T13:44:26;28.82;42.96
52656;SHT85;35474;51.032;6.998;2022-08-01T13:46:53;28.40;43.86
52656;SHT85;35474;51.032;6.998;2022-08-01T13:49:20;28.85;43.58
52656;SHT85;35474;51.032;6.998;2022-08-01T13:51:48;29.42;42.10
52656;SHT85;35474;51.032;6.998;2022-08-01T13:54:17;28.47;42.76
52656;SHT85;35474;51.032;6.998;2022-08-01T13:56:44;28.50;42.86
52656;SHT85;35474;51.032;6.998;2022-08-01T13:59:10;28.45;43.16
52656;SHT85;35474;51.032;6.998;2022-08-01T14:01:37;28.39;43.08
52656;SHT85;35474;51.032;6.998;2022-08-01T14:04:04;28.23;43.43
52656;SHT85;35474;51.032;6.998;2022-08-01T14:06:31;28.63;42.80
52656;SHT85;35474;51.032;6.998;2022-08-01T14:08:58;28.92;42.53
52656;SHT85;35474;51.032;6.998;2022-08-01T14:11:26;28.50;42.47
52656;SHT85;35474;51.032;6.998;2022-08-01T14:14:02;28.44;42.50
52656;SHT85;35474;51.032;6.998;2022-08-01T14:16:29;28.65;42.31
52656;SHT85;35474;51.032;6.998;2022-08-01T14:18:56;29.47;41.22
52656;SHT85;35474;51.032;6.998;2022-08-01T14:21:23;28.96;41.72
52656;SHT85;35474;51.032;6.998;2022-08-01T14:23:49;28.74;42.22
52656;SHT85;35474;51.032;6.998;2022-08-01T14:26:16;29.23;41.53
52656;SHT85;35474;51.032;6.998;2022-08-01T14:28:42;28.60;42.73
52656;SHT85;35474;51.032;6.998;2022-08-01T14:31:09;28.72;42.93
52656;SHT85;35474;51.032;6.998;2022-08-01T14:33:36;28.44;43.55
52656;SHT85;35474;51.032;6.998;2022-08-01T14:36:03;28.33;44.34
52656;SHT85;35474;51.032;6.998;2022-08-01T14:38:50;28.44;44.11
52656;SHT85;35474;51.032;6.998;2022-08-01T14:41:17;28.61;44.17
52656;SHT85;35474;51.032;6.998;2022-08-01T14:43:43;28.57;44.30
52656;SHT85;35474;51.032;6.998;2022-08-01T14:46:10;28.10;45.25
52656;SHT85;35474;51.032;6.998;2022-08-01T14:48:38;27.72;45.50
52656;SHT85;35474;51.032;6.998;2022-08-01T14:51:05;27.63;45.34
52656;SHT85;35474;51.032;6.998;2022-08-01T14:53:33;27.52;45.74
52656;SHT85;35474;51.032;6.998;2022-08-01T14:56:05;27.79;45.14
52656;SHT85;35474;51.032;6.998;2022-08-01T14:58:32;28.24;44.64
52656;SHT85;35474;51.032;6.998;2022-08-01T15:00:59;28.50;43.07
52656;SHT85;35474;51.032;6.998;2022-08-01T15:03:26;28.34;43.65
52656;SHT85;35474;51.032;6.998;2022-08-01T15:05:53;27.79;44.56
52656;SHT85;35474;51.032;6.998;2022-08-01T15:08:20;27.63;45.14
52656;SHT85;35474;51.032;6.998;2022-08-01T15:10:46;27.72;45.50
52656;SHT85;35474;51.032;6.998;2022-08-01T15:13:13;27.93;45.19
52656;SHT85;35474;51.032;6.998;2022-08-01T15:15:39;28.12;45.35
52656;SHT85;35474;51.032;6.998;2022-08-01T15:18:06;28.03;44.88
52656;SHT85;35474;51.032;6.998;2022-08-01T15:20:32;27.92;45.54
52656;SHT85;35474;51.032;6.998;2022-08-01T15:22:59;28.34;45.81
52656;SHT85;35474;51.032;6.998;2022-08-01T15:25:26;28.58;46.15
52656;SHT85;35474;51.032;6.998;2022-08-01T15:28:10;28.00;47.80
52656;SHT85;35474;51.032;6.998;2022-08-01T15:30:37;27.78;48.51
52656;SHT85;35474;51.032;6.998;2022-08-01T15:33:03;27.97;48.10
52656;SHT85;35474;51.032;6.998;2022-08-01T15:35:30;28.10;48.05
52656;SHT85;35474;51.032;6.998;2022-08-01T15:37:57;28.13;48.12
52656;SHT85;35474;51.032;6.998;2022-08-01T15:40:24;27.68;49.18
52656;SHT85;35474;51.032;6.998;2022-08-01T15:42:50;27.39;49.68
52656;SHT85;35474;51.032;6.998;2022-08-01T15:45:18;27.37;49.57
52656;SHT85;35474;51.032;6.998;2022-08-01T15:48:07;27.34;49.33
52656;SHT85;35474;51.032;6.998;2022-08-01T15:50:33;27.03;50.36
52656;SHT85;35474;51.032;6.998;2022-08-01T15:53:00;26.77;50.56
52656;SHT85;35474;51.032;6.998;2022-08-01T15:55:27;26.80;50.43
52656;SHT85;35474;51.032;6.998;2022-08-01T15:57:54;27.01;50.37
52656;SHT85;35474;51.032;6.998;2022-08-01T16:00:21;27.15;49.89
52656;SHT85;35474;51.032;6.998;2022-08-01T16:02:48;27.69;48.59
52656;SHT85;35474;51.032;6.998;2022-08-01T16:05:14;28.02;47.84
52656;SHT85;35474;51.032;6.998;2022-08-01T16:07:45;27.92;48.09
52656;SHT85;35474;51.032;6.998;2022-08-01T16:10:26;28.87;46.62
52656;SHT85;35474;51.032;6.998;2022-08-01T16:12:53;29.35;45.68
52656;SHT85;35474;51.032;6.998;2022-08-01T16:15:20;29.81;44.50
52656;SHT85;35474;51.032;6.998;2022-08-01T16:17:47;29.23;45.29
52656;SHT85;35474;51.032;6.998;2022-08-01T16:20:13;29.12;45.19
52656;SHT85;35474;51.032;6.998;2022-08-01T16:22:40;29.53;44.61
52656;SHT85;35474;51.032;6.998;2022-08-01T16:25:07;29.08;45.47
52656;SHT85;35474;51.032;6.998;2022-08-01T16:27:33;28.29;47.48
52656;SHT85;35474;51.032;6.998;2022-08-01T16:30:04;27.45;49.28
52656;SHT85;35474;51.032;6.998;2022-08-01T16:32:31;27.27;50.08
52656;SHT85;35474;51.032;6.998;2022-08-01T16:35:05;26.90;51.03
52656;SHT85;35474;51.032;6.998;2022-08-01T16:37:32;26.87;51.03
52656;SHT85;35474;51.032;6.998;2022-08-01T16:39:59;26.70;51.36
52656;SHT85;35474;51.032;6.998;2022-08-01T16:42:25;26.46;52.01
52656;SHT85;35474;51.032;6.998;2022-08-01T16:44:53;26.37;52.10
52656;SHT85;35474;51.032;6.998;2022-08-01T16:47:19;26.18;52.86
52656;SHT85;35474;51.032;6.998;2022-08-01T16:49:46;26.07;53.12
52656;SHT85;35474;51.032;6.998;2022-08-01T16:52:12;26.05;53.25
52656;SHT85;35474;51.032;6.998;2022-08-01T16:54:39;25.89;53.56
52656;SHT85;35474;51.032;6.998;2022-08-01T16:57:06;25.87;53.49
52656;SHT85;35474;51.032;6.998;2022-08-01T16:59:34;26.08;53.27
52656;SHT85;35474;51.032;6.998;2022-08-01T17:02:07;26.28;52.65
52656;SHT85;35474;51.032;6.998;2022-08-01T17:04:35;26.12;53.05
52656;SHT85;35474;51.032;6.998;2022-08-01T17:07:01;26.01;53.26